createdAt,value
2023-03-18T00:01:11.457Z,33.50
2023-03-18T00:03:40.914Z,33.90
2023-03-18T00:06:12.981Z,34.20
2023-03-18T00:08:42.597Z,34.70
2023-03-18T00:11:12.852Z,34.30
2023-03-18T00:13:42.456Z,34.90
2023-03-18T00:16:12.649Z,35.00
2023-03-18T00:18:42.535Z,35.20
2023-03-18T00:21:12.093Z,34.60
2023-03-18T00:23:41.236Z,35.30
2023-03-18T00:26:09.788Z,35.50
2023-03-18T00:28:38.904Z,35.50
2023-03-18T00:31:09.745Z,35.40
2023-03-18T00:33:39.923Z,35.70
2023-03-18T00:36:13.614Z,35.10
2023-03-18T00:38:42.199Z,36.00
2023-03-18T00:41:12.567Z,36.10
2023-03-18T00:43:47.209Z,35.50
2023-03-18T00:46:19.691Z,35.90
2023-03-18T00:48:48.325Z,36.00
2023-03-18T00:51:18.677Z,36.00
2023-03-18T00:53:49.601Z,35.50
2023-03-18T00:56:19.376Z,35.90
2023-03-18T00:58:48.420Z,35.80
2023-03-18T01:01:17.704Z,36.40
2023-03-18T01:03:47.538Z,36.70
2023-03-18T01:06:21.023Z,36.80
2023-03-18T01:08:49.687Z,36.60
2023-03-18T01:11:18.168Z,36.60
2023-03-18T01:13:47.477Z,36.70
2023-03-18T01:16:16.266Z,36.80
2023-03-18T01:18:44.585Z,36.80
2023-03-18T01:21:14.034Z,36.60
2023-03-18T01:23:43.471Z,36.70
2023-03-18T01:26:11.605Z,36.80
2023-03-18T01:28:39.635Z,36.90
2023-03-18T01:31:08.049Z,37.00
2023-03-18T01:33:36.624Z,37.10
2023-03-18T01:36:05.662Z,37.00
2023-03-18T01:38:34.003Z,37.40
2023-03-18T01:41:03.705Z,37.10
2023-03-18T01:43:34.729Z,37.40
2023-03-18T01:46:34.785Z,37.40
2023-03-18T01:49:07.426Z,37.50
2023-03-18T01:51:35.937Z,37.70
2023-03-18T01:54:07.383Z,37.70
2023-03-18T01:56:40.451Z,37.10
2023-03-18T01:59:10.515Z,37.70
2023-03-18T02:01:45.033Z,37.30
2023-03-18T02:06:42.241Z,37.90
2023-03-18T02:09:11.334Z,38.40
2023-03-18T02:11:44.288Z,38.50
2023-03-18T02:14:15.421Z,38.50
2023-03-18T02:16:48.822Z,38.50
2023-03-18T02:19:34.650Z,38.00
2023-03-18T02:22:19.524Z,38.60
2023-03-18T02:24:56.636Z,38.70
2023-03-18T02:27:28.294Z,38.20
2023-03-18T02:29:59.309Z,38.50
2023-03-18T02:32:29.136Z,38.40
2023-03-18T02:34:59.522Z,39.00
2023-03-18T02:37:27.730Z,39.10
2023-03-18T02:39:55.697Z,38.60
2023-03-18T02:42:32.471Z,39.00
2023-03-18T02:45:01.144Z,39.40
2023-03-18T02:47:31.673Z,39.40
2023-03-18T02:49:59.669Z,38.80
2023-03-18T02:52:27.668Z,39.70
2023-03-18T02:54:59.094Z,38.70
2023-03-18T02:57:27.064Z,38.90
2023-03-18T02:59:56.469Z,39.80
2023-03-18T03:02:24.644Z,39.50
2023-03-18T03:04:52.695Z,39.50
2023-03-18T03:07:20.651Z,40.20
2023-03-18T03:09:48.698Z,39.70
2023-03-18T03:12:16.728Z,40.00
2023-03-18T03:14:44.738Z,40.00
2023-03-18T03:17:14.211Z,39.90
2023-03-18T03:19:42.228Z,39.60
2023-03-18T03:22:10.488Z,39.70
2023-03-18T03:24:38.457Z,40.10
2023-03-18T03:27:06.911Z,39.90
2023-03-18T03:29:34.859Z,39.60
2023-03-18T03:32:03.086Z,40.10
2023-03-18T03:34:33.682Z,40.30
2023-03-18T03:37:01.814Z,40.30
2023-03-18T03:39:29.768Z,41.00
2023-03-18T03:41:57.706Z,41.20
2023-03-18T03:44:25.915Z,40.50
2023-03-18T03:46:54.115Z,41.00
2023-03-18T03:49:22.325Z,41.20
2023-03-18T03:51:52.010Z,41.00
2023-03-18T03:54:20.807Z,41.00
2023-03-18T03:56:48.735Z,40.80
2023-03-18T03:59:16.684Z,41.60
2023-03-18T04:01:44.765Z,41.50
2023-03-18T04:04:13.248Z,41.90
2023-03-18T04:06:41.303Z,41.50
2023-03-18T04:09:10.937Z,41.00
2023-03-18T04:11:38.902Z,41.20
2023-03-18T04:14:06.894Z,41.60
2023-03-18T04:16:35.130Z,41.70
2023-03-18T04:19:03.241Z,41.30
2023-03-18T04:21:31.498Z,40.90
2023-03-18T04:23:59.429Z,41.20
2023-03-18T04:26:29.067Z,41.40
2023-03-18T04:28:57.108Z,41.40
2023-03-18T04:31:25.578Z,41.70
2023-03-18T04:33:53.740Z,41.60
2023-03-18T04:36:21.696Z,41.80
2023-03-18T04:38:49.712Z,41.90
2023-03-18T04:41:18.256Z,42.00
2023-03-18T04:43:47.686Z,42.20
2023-03-18T04:46:15.916Z,42.70
2023-03-18T04:48:44.578Z,41.90
2023-03-18T04:51:12.625Z,42.30
2023-03-18T04:53:40.889Z,42.50
2023-03-18T04:56:09.675Z,42.30
2023-03-18T04:58:37.699Z,42.60
2023-03-18T05:01:07.161Z,42.70
2023-03-18T05:03:35.194Z,42.70
2023-03-18T05:06:03.367Z,42.80
2023-03-18T05:08:31.794Z,42.50
2023-03-18T05:10:59.757Z,42.80
2023-03-18T05:13:28.392Z,42.60
2023-03-18T05:15:56.345Z,42.90
2023-03-18T05:18:26.147Z,43.00
2023-03-18T05:20:55.041Z,43.00
2023-03-18T05:23:23.959Z,42.90
2023-03-18T05:25:52.229Z,43.60
2023-03-18T05:28:20.232Z,43.30
2023-03-18T05:30:48.296Z,43.40
2023-03-18T05:33:16.903Z,43.60
2023-03-18T05:35:46.296Z,43.70
2023-03-18T05:38:14.705Z,43.60
2023-03-18T05:40:43.386Z,43.70
2023-03-18T05:43:11.974Z,44.10
2023-03-18T05:45:40.894Z,44.00
2023-03-18T05:48:10.527Z,44.00
2023-03-18T05:50:41.767Z,43.80
2023-03-18T05:53:11.960Z,43.80
2023-03-18T05:55:41.022Z,44.00
2023-03-18T05:58:09.421Z,44.40
2023-03-18T06:00:38.495Z,44.50
2023-03-18T06:03:06.635Z,44.50
2023-03-18T06:05:35.180Z,44.40
2023-03-18T06:08:03.409Z,44.70
2023-03-18T06:10:33.398Z,44.30
2023-03-18T06:13:01.585Z,44.70
2023-03-18T06:15:30.475Z,44.70
2023-03-18T06:17:58.821Z,44.40
2023-03-18T06:20:26.887Z,44.50
2023-03-18T06:22:54.853Z,44.50
2023-03-18T06:25:23.905Z,44.50
2023-03-18T06:27:53.348Z,44.50
2023-03-18T06:30:22.021Z,44.40
2023-03-18T06:32:50.164Z,44.20
2023-03-18T06:35:18.812Z,44.70
2023-03-18T06:37:46.879Z,44.30
2023-03-18T06:40:15.622Z,44.90
2023-03-18T06:42:44.506Z,44.70
2023-03-18T06:45:15.173Z,44.80
2023-03-18T06:47:43.144Z,44.90
2023-03-18T06:50:13.444Z,45.20
2023-03-18T06:52:41.474Z,45.20
2023-03-18T06:55:10.770Z,44.90
2023-03-18T06:57:38.946Z,44.70
2023-03-18T07:00:09.023Z,45.10
2023-03-18T07:02:39.746Z,44.80
2023-03-18T07:05:09.479Z,44.80
2023-03-18T07:07:38.602Z,45.10
2023-03-18T07:10:09.234Z,44.50
2023-03-18T07:12:37.188Z,44.50
2023-03-18T07:15:06.173Z,44.70
2023-03-18T07:17:34.223Z,44.90
2023-03-18T07:20:05.348Z,44.90
2023-03-18T07:22:33.380Z,45.20
2023-03-18T07:25:01.356Z,45.40
2023-03-18T07:27:29.751Z,45.80
2023-03-18T07:29:58.021Z,44.90
2023-03-18T07:32:26.076Z,45.20
2023-03-18T07:34:54.056Z,45.20
2023-03-18T07:37:23.445Z,45.50
2023-03-18T07:39:52.875Z,45.20
2023-03-18T07:42:20.858Z,45.20
2023-03-18T07:44:48.994Z,45.50
2023-03-18T07:47:17.030Z,45.80
2023-03-18T07:49:45.102Z,45.50
2023-03-18T07:52:13.237Z,44.90
2023-03-18T07:54:42.554Z,44.20
2023-03-18T07:57:11.449Z,43.10
2023-03-18T07:59:39.494Z,42.40
2023-03-18T08:02:08.882Z,41.30
2023-03-18T08:04:37.564Z,41.70
2023-03-18T08:07:05.976Z,39.00
2023-03-18T08:09:34.157Z,38.40
2023-03-18T08:12:03.697Z,38.60
2023-03-18T08:14:31.921Z,38.30
2023-03-18T08:16:59.937Z,37.80
2023-03-18T08:19:28.169Z,37.70
2023-03-18T08:21:57.490Z,37.40
2023-03-18T08:24:25.581Z,37.30
2023-03-18T08:26:53.550Z,37.20
2023-03-18T08:29:23.474Z,37.30
2023-03-18T08:31:52.091Z,37.30
2023-03-18T08:34:20.126Z,37.20
2023-03-18T08:36:48.994Z,37.00
2023-03-18T08:39:17.527Z,36.30
2023-03-18T08:41:45.934Z,36.80
2023-03-18T08:44:14.026Z,36.60
2023-03-18T08:46:43.476Z,36.40
2023-03-18T08:49:12.234Z,36.40
2023-03-18T08:51:40.253Z,36.00
2023-03-18T08:54:09.101Z,35.60
2023-03-18T08:56:38.140Z,35.60
2023-03-18T08:59:06.993Z,35.70
2023-03-18T09:01:35.061Z,35.20
2023-03-18T09:04:04.684Z,35.00
2023-03-18T09:06:32.825Z,34.90
2023-03-18T09:09:00.898Z,35.10
2023-03-18T09:11:29.043Z,34.70
2023-03-18T09:13:57.178Z,34.20
2023-03-18T09:16:25.374Z,34.50
2023-03-18T09:18:53.591Z,34.50
2023-03-18T09:21:23.200Z,34.30
2023-03-18T09:23:52.652Z,34.30
2023-03-18T09:26:20.755Z,33.80
2023-03-18T09:28:48.768Z,33.80
2023-03-18T09:31:16.925Z,34.00
2023-03-18T09:33:44.948Z,33.50
2023-03-18T09:36:13.812Z,33.20
2023-03-18T09:38:43.771Z,33.50
2023-03-18T09:41:29.724Z,32.90
2023-03-18T09:44:09.320Z,33.00
2023-03-18T09:46:54.193Z,32.40
2023-03-18T09:49:38.936Z,33.00
2023-03-18T09:52:20.040Z,32.60
2023-03-18T09:54:58.723Z,32.00
2023-03-18T09:57:30.049Z,31.70
2023-03-18T10:00:08.941Z,31.70
2023-03-18T10:02:42.076Z,31.40
2023-03-18T10:05:16.742Z,30.50
2023-03-18T10:07:47.238Z,30.70
2023-03-18T10:10:25.678Z,30.00
2023-03-18T10:13:02.523Z,30.40
2023-03-18T10:15:36.196Z,30.10
2023-03-18T10:18:13.654Z,30.00
2023-03-18T10:20:58.981Z,29.70
2023-03-18T10:23:46.206Z,29.50
2023-03-18T10:26:21.903Z,29.40
2023-03-18T10:29:30.329Z,29.10
2023-03-18T10:32:10.164Z,29.00
2023-03-18T10:34:51.090Z,28.60
2023-03-18T10:37:35.736Z,28.50
2023-03-18T10:40:12.854Z,28.40
2023-03-18T10:42:42.626Z,28.40
2023-03-18T10:45:23.373Z,28.10
2023-03-18T10:47:59.556Z,28.00
2023-03-18T10:50:34.759Z,27.80
2023-03-18T10:53:14.528Z,27.70
2023-03-18T10:55:57.299Z,27.80
2023-03-18T10:58:29.055Z,27.30
2023-03-18T11:00:57.555Z,27.30
2023-03-18T11:03:29.296Z,27.40
2023-03-18T11:06:01.936Z,27.00
2023-03-18T11:08:37.221Z,27.00
2023-03-18T11:11:29.362Z,27.60
2023-03-18T11:13:59.822Z,27.10
2023-03-18T11:16:35.277Z,26.70
2023-03-18T11:19:23.565Z,26.60
2023-03-18T11:22:04.308Z,26.30
2023-03-18T11:24:38.999Z,26.20
2023-03-18T11:27:26.931Z,26.00
2023-03-18T11:30:03.013Z,26.20
2023-03-18T11:32:33.948Z,26.60
2023-03-18T11:35:04.163Z,26.30
2023-03-18T11:37:34.817Z,26.40
2023-03-18T11:40:20.884Z,26.30
2023-03-18T11:42:55.961Z,26.40
2023-03-18T11:45:35.862Z,26.30
2023-03-18T11:48:04.651Z,26.20
2023-03-18T11:50:46.828Z,26.20
2023-03-18T11:53:21.905Z,26.20
2023-03-18T11:55:53.795Z,25.90
2023-03-18T11:59:09.062Z,25.90
2023-03-18T12:01:50.683Z,25.80
2023-03-18T12:04:45.967Z,25.80
2023-03-18T12:07:38.363Z,25.60
2023-03-18T12:10:20.025Z,25.50
2023-03-18T12:13:05.165Z,25.40
2023-03-18T12:15:47.097Z,25.40
2023-03-18T12:18:35.685Z,25.50
2023-03-18T12:21:21.660Z,26.30
2023-03-18T12:24:10.227Z,26.10
2023-03-18T12:26:49.557Z,25.90
2023-03-18T12:29:43.156Z,26.50
2023-03-18T12:32:26.013Z,26.90
2023-03-18T12:35:21.707Z,27.30
2023-03-18T12:38:13.931Z,27.00
2023-03-18T12:40:51.702Z,27.30
2023-03-18T12:43:37.439Z,27.50
2023-03-18T12:46:19.077Z,27.70
2023-03-18T12:48:55.695Z,27.90
2023-03-18T12:51:32.038Z,27.50
2023-03-18T12:54:11.798Z,28.00
2023-03-18T12:56:45.200Z,28.40
2023-03-18T12:59:20.345Z,28.30
2023-03-18T13:02:00.767Z,28.90
2023-03-18T13:04:33.010Z,29.10
2023-03-18T13:07:08.122Z,29.60
2023-03-18T13:09:40.620Z,29.40
2023-03-18T13:12:13.285Z,29.60
2023-03-18T13:14:56.301Z,29.50
2023-03-18T13:17:30.486Z,29.90
2023-03-18T13:20:01.323Z,30.00
2023-03-18T13:22:57.302Z,30.00
2023-03-18T13:25:37.189Z,30.50
2023-03-18T13:28:30.181Z,30.40
2023-03-18T13:31:11.242Z,31.00
2023-03-18T13:34:27.737Z,31.00
2023-03-18T13:37:22.662Z,31.30
2023-03-18T13:40:19.891Z,31.20
2023-03-18T13:42:49.983Z,31.60
2023-03-18T13:45:28.399Z,31.50
2023-03-18T13:47:59.130Z,31.80
2023-03-18T13:50:34.906Z,32.50
2023-03-18T13:53:05.563Z,32.20
2023-03-18T13:55:45.042Z,32.80
2023-03-18T13:58:25.854Z,32.90
2023-03-18T14:01:32.854Z,33.10
2023-03-18T14:04:45.850Z,33.80
2023-03-18T14:07:18.419Z,33.50
2023-03-18T14:09:54.827Z,33.90
2023-03-18T14:12:41.309Z,34.10
2023-03-18T14:15:38.587Z,34.10
2023-03-18T14:18:27.609Z,33.40
2023-03-18T14:21:02.505Z,33.40
2023-03-18T14:23:43.485Z,33.20
2023-03-18T14:26:23.430Z,33.30
2023-03-18T14:28:57.617Z,32.70
2023-03-18T14:31:34.949Z,32.90
2023-03-18T14:34:34.115Z,33.00
2023-03-18T14:37:27.640Z,32.70
2023-03-18T14:40:01.971Z,32.70
2023-03-18T14:42:38.921Z,32.60
2023-03-18T14:45:20.617Z,32.60
2023-03-18T14:47:52.377Z,32.90
2023-03-18T14:50:30.860Z,32.80
2023-03-18T14:53:07.133Z,32.80
2023-03-18T14:55:37.097Z,32.60
2023-03-18T14:58:05.592Z,32.50
2023-03-18T15:00:37.516Z,32.50
2023-03-18T15:03:09.318Z,32.10
2023-03-18T15:05:40.930Z,32.30
2023-03-18T15:08:19.133Z,32.00
2023-03-18T15:10:48.843Z,32.00
2023-03-18T15:13:20.342Z,31.80
2023-03-18T15:15:54.665Z,31.70
2023-03-18T15:18:29.334Z,31.60
2023-03-18T15:21:02.553Z,31.70
2023-03-18T15:23:37.099Z,31.90
2023-03-18T15:26:09.762Z,31.50
2023-03-18T15:28:38.535Z,31.70
2023-03-18T15:31:07.907Z,31.60
2023-03-18T15:33:39.785Z,32.00
2023-03-18T15:36:16.390Z,32.10
2023-03-18T15:38:48.807Z,31.60
2023-03-18T15:41:17.882Z,31.60
2023-03-18T15:43:48.233Z,31.80
2023-03-18T15:46:20.899Z,32.10
2023-03-18T15:48:55.103Z,31.60
2023-03-18T15:51:29.980Z,31.90
2023-03-18T15:54:03.475Z,31.80
2023-03-18T15:56:33.767Z,31.40
2023-03-18T15:59:12.165Z,31.90
2023-03-18T16:01:41.613Z,31.70
2023-03-18T16:04:14.510Z,32.10
2023-03-18T16:06:43.044Z,32.10
2023-03-18T16:09:18.083Z,32.40
2023-03-18T16:11:49.037Z,32.20
2023-03-18T16:14:19.202Z,32.30
2023-03-18T16:16:48.855Z,32.60
2023-03-18T16:19:24.736Z,32.10
2023-03-18T16:21:52.935Z,32.60
2023-03-18T16:24:21.112Z,32.50
2023-03-18T16:26:49.470Z,32.80
2023-03-18T16:29:20.045Z,32.70
2023-03-18T16:31:49.508Z,32.90
2023-03-18T16:34:21.748Z,32.80
2023-03-18T16:36:51.934Z,32.90
2023-03-18T16:39:24.155Z,32.90
2023-03-18T16:41:53.555Z,32.60
2023-03-18T16:44:23.560Z,32.80
2023-03-18T16:46:55.611Z,33.00
2023-03-18T16:49:30.837Z,33.30
2023-03-18T16:51:58.929Z,32.80
2023-03-18T16:54:28.794Z,33.10
2023-03-18T16:56:59.912Z,32.80
2023-03-18T16:59:32.554Z,33.00
2023-03-18T17:02:04.170Z,32.70
2023-03-18T17:04:34.692Z,32.90
2023-03-18T17:07:05.161Z,32.90
2023-03-18T17:09:33.373Z,32.90
2023-03-18T17:12:05.762Z,33.00
2023-03-18T17:14:38.653Z,32.90
2023-03-18T17:17:17.691Z,32.80
2023-03-18T17:19:45.672Z,32.90
2023-03-18T17:22:22.322Z,33.00
2023-03-18T17:24:50.717Z,32.80
2023-03-18T17:27:22.119Z,32.50
2023-03-18T17:29:50.610Z,32.30
2023-03-18T17:32:22.015Z,32.80
2023-03-18T17:34:52.477Z,32.50
2023-03-18T17:37:21.562Z,32.50
2023-03-18T17:39:49.570Z,32.50
2023-03-18T17:42:30.352Z,32.50
2023-03-18T17:45:04.840Z,32.70
2023-03-18T17:47:34.291Z,32.50
2023-03-18T17:50:04.777Z,32.70
2023-03-18T17:52:33.974Z,32.70
2023-03-18T17:55:02.102Z,32.60
2023-03-18T17:57:30.177Z,32.70
2023-03-18T17:59:58.413Z,33.20
2023-03-18T18:02:26.494Z,33.10
2023-03-18T18:04:55.888Z,32.80
2023-03-18T18:07:23.881Z,32.60
2023-03-18T18:09:52.721Z,32.70
2023-03-18T18:12:24.990Z,32.90
2023-03-18T18:14:53.235Z,32.90
2023-03-18T18:17:21.865Z,32.70
2023-03-18T18:19:50.004Z,32.80
2023-03-18T18:22:22.669Z,32.90
2023-03-18T18:24:52.218Z,32.90
2023-03-18T18:27:20.328Z,33.10
2023-03-18T18:29:48.342Z,33.20
2023-03-18T18:32:16.427Z,33.10
2023-03-18T18:34:45.010Z,32.90
2023-03-18T18:37:13.350Z,32.90
2023-03-18T18:39:43.578Z,33.20
2023-03-18T18:42:12.275Z,32.70
2023-03-18T18:44:40.306Z,33.30
2023-03-18T18:47:19.168Z,33.60
2023-03-18T18:49:47.743Z,33.50
2023-03-18T18:52:15.825Z,33.70
2023-03-18T18:54:45.304Z,33.60
2023-03-18T18:57:26.633Z,33.20
2023-03-18T18:59:54.885Z,33.30
2023-03-18T19:02:31.355Z,33.20
2023-03-18T19:04:59.995Z,33.60
2023-03-18T19:07:29.189Z,33.60
2023-03-18T19:09:59.110Z,32.80
2023-03-18T19:12:27.475Z,33.60
2023-03-18T19:14:55.843Z,33.00
2023-03-18T19:17:24.270Z,33.00
2023-03-18T19:19:53.692Z,32.70
2023-03-18T19:22:22.537Z,33.50
2023-03-18T19:24:50.719Z,34.50
2023-03-18T19:27:24.403Z,34.00
2023-03-18T19:29:54.794Z,35.10
2023-03-18T19:32:24.505Z,35.20
2023-03-18T19:34:54.571Z,35.60
2023-03-18T19:37:28.634Z,34.90
2023-03-18T19:39:57.039Z,35.00
2023-03-18T19:42:27.081Z,35.80
2023-03-18T19:44:55.893Z,35.80
2023-03-18T19:47:26.392Z,36.00
2023-03-18T19:49:55.036Z,36.50
2023-03-18T19:52:26.336Z,36.40
2023-03-18T19:54:55.600Z,36.50
2023-03-18T19:57:28.241Z,36.80
2023-03-18T19:59:59.611Z,36.80
2023-03-18T20:02:31.223Z,36.90
2023-03-18T20:05:02.432Z,36.10
2023-03-18T20:07:33.234Z,37.20
2023-03-18T20:10:01.367Z,36.90
2023-03-18T20:12:35.369Z,35.90
2023-03-18T20:15:04.440Z,36.00
2023-03-18T20:17:38.428Z,37.50
2023-03-18T20:20:08.722Z,37.10
2023-03-18T20:22:40.099Z,36.90
2023-03-18T20:25:17.789Z,37.00
2023-03-18T20:27:47.334Z,36.50
2023-03-18T20:30:25.208Z,36.50
2023-03-18T20:32:53.298Z,36.60
2023-03-18T20:35:21.786Z,36.10
2023-03-18T20:37:50.216Z,35.90
2023-03-18T20:40:24.369Z,36.70
2023-03-18T20:42:53.845Z,36.70
2023-03-18T20:45:23.600Z,36.70
2023-03-18T20:47:52.687Z,36.90
2023-03-18T20:50:23.768Z,36.60
2023-03-18T20:52:52.713Z,36.30
2023-03-18T20:55:25.168Z,36.90
2023-03-18T20:57:55.272Z,36.70
2023-03-18T21:00:26.847Z,36.80
2023-03-18T21:02:58.418Z,36.50
2023-03-18T21:05:27.491Z,36.90
2023-03-18T21:07:55.816Z,36.80
2023-03-18T21:10:25.804Z,35.90
2023-03-18T21:12:55.536Z,36.60
2023-03-18T21:15:26.422Z,36.50
2023-03-18T21:17:54.967Z,36.00
2023-03-18T21:20:28.169Z,35.90
2023-03-18T21:22:56.945Z,35.70
2023-03-18T21:25:27.552Z,35.90
2023-03-18T21:27:57.651Z,35.80
2023-03-18T21:30:25.706Z,36.10
2023-03-18T21:32:53.721Z,36.20
2023-03-18T21:35:24.788Z,36.20
2023-03-18T21:37:53.716Z,36.60
2023-03-18T21:40:24.720Z,35.60
2023-03-18T21:42:53.567Z,36.20
2023-03-18T21:45:24.325Z,35.30
2023-03-18T21:47:53.034Z,36.20
2023-03-18T21:50:24.161Z,35.50
2023-03-18T21:52:53.459Z,36.00
2023-03-18T21:55:21.962Z,35.90
2023-03-18T21:57:49.954Z,35.20
2023-03-18T22:00:22.325Z,35.50
2023-03-18T22:02:50.971Z,36.30
2023-03-18T22:05:21.681Z,35.80
2023-03-18T22:07:50.843Z,35.80
2023-03-18T22:10:22.281Z,35.40
2023-03-18T22:12:50.597Z,35.90
2023-03-18T22:15:41.174Z,36.00
2023-03-18T22:18:09.282Z,36.40
2023-03-18T22:20:38.915Z,35.70
2023-03-18T22:23:17.141Z,36.30
2023-03-18T22:25:47.257Z,36.20
2023-03-18T22:28:15.753Z,36.50
2023-03-18T22:30:51.861Z,36.50
2023-03-18T22:33:23.660Z,36.50
2023-03-18T22:35:51.843Z,35.40
2023-03-18T22:38:21.959Z,35.90
2023-03-18T22:40:53.018Z,36.10
2023-03-18T22:43:33.384Z,36.50
2023-03-18T22:46:06.186Z,36.50
2023-03-18T22:48:34.772Z,36.70
2023-03-18T22:51:03.726Z,36.00
2023-03-18T22:53:35.641Z,36.30
2023-03-18T22:56:09.961Z,36.40
2023-03-18T22:58:39.187Z,36.10
2023-03-18T23:01:08.858Z,36.50
2023-03-18T23:03:40.337Z,36.10
2023-03-18T23:06:09.251Z,35.80
2023-03-18T23:08:37.355Z,36.10
2023-03-18T23:11:05.739Z,35.90
2023-03-18T23:13:37.929Z,36.20
2023-03-18T23:16:09.781Z,37.30
2023-03-18T23:18:38.238Z,37.30
2023-03-18T23:21:06.918Z,36.70
2023-03-18T23:23:34.944Z,36.70
2023-03-18T23:26:03.216Z,36.20
2023-03-18T23:28:34.537Z,37.00
2023-03-18T23:31:09.294Z,37.00
2023-03-18T23:33:37.472Z,37.30
2023-03-18T23:36:06.081Z,37.10
2023-03-18T23:38:34.083Z,37.50
2023-03-18T23:41:02.146Z,37.60
2023-03-18T23:43:30.202Z,37.00
2023-03-18T23:45:58.283Z,37.60
2023-03-18T23:48:28.105Z,37.10
2023-03-18T23:50:56.243Z,37.80
2023-03-18T23:53:24.457Z,37.90
2023-03-18T23:55:52.457Z,37.10
2023-03-18T23:58:20.496Z,38.50
